Mollusk, Virginia
Current Conditions -  °F | °C
As of 10:35 AM on Monday 22 Dec 2014 (Local Time) from KW75 Reporting Station
Overcast Overcast  
Wind Chill: 36°   Ceiling: 2900
Heat Index: 39°   Visibility: 7mi
Dew Point: 37°   Wind: 5mph
Humidity: 91%   Direction: 40°NE
Pressure: 30.22"   Gusts: NA
Location:  37.73°N, 76.54°W
Report Text: KW75 221535Z AUTO 04004KT 7SM SCT009 OVC029 04/03 A3022 RMK AO1 T00390026
Loading
Personal Weather Stations






























Interactive Weather Map New forecast layout! Learn more

10-Day Weather Forecast

Advertisements
Track Severe Weather on mobile